createdAt,value
2017-03-13T00:00:31.572Z,52.08
2017-03-13T00:01:45.254Z,51.98
2017-03-13T00:02:59.353Z,51.89
2017-03-13T00:04:13.056Z,51.98
2017-03-13T00:05:26.516Z,51.79
2017-03-13T00:06:40.651Z,51.79
2017-03-13T00:07:54.267Z,51.89
2017-03-13T00:09:07.772Z,51.98
2017-03-13T00:10:21.287Z,52.14
2017-03-13T00:11:34.938Z,51.95
2017-03-13T00:12:48.898Z,51.98
2017-03-13T00:14:03.022Z,52.17
2017-03-13T00:15:17.084Z,52.08
2017-03-13T00:16:30.987Z,52.53
2017-03-13T00:17:44.851Z,52.24
2017-03-13T00:18:58.364Z,52.08
2017-03-13T00:20:14.035Z,51.95
2017-03-13T00:21:27.596Z,52.05
2017-03-13T00:22:42.084Z,52.05
2017-03-13T00:23:56.070Z,52.17
2017-03-13T00:25:10.836Z,52.14
2017-03-13T00:26:24.372Z,52.17
2017-03-13T00:27:38.733Z,52.26
2017-03-13T00:28:52.740Z,52.45
2017-03-13T00:30:06.635Z,52.33
2017-03-13T00:31:20.138Z,52.74
2017-03-13T00:32:34.287Z,52.53
2017-03-13T00:33:47.852Z,52.64
2017-03-13T00:35:02.191Z,52.72
2017-03-13T00:36:15.735Z,53
2017-03-13T00:37:30.027Z,52.91
2017-03-13T00:38:43.578Z,52.62
2017-03-13T00:39:57.264Z,52.72
2017-03-13T00:41:11.218Z,52.91
2017-03-13T00:42:24.695Z,52.91
2017-03-13T00:43:38.231Z,52.72
2017-03-13T00:44:51.850Z,52.74
2017-03-13T00:46:05.896Z,52.81
2017-03-13T00:47:19.432Z,52.74
2017-03-13T00:48:32.948Z,52.81
2017-03-13T00:49:46.519Z,52.64
2017-03-13T00:51:00.103Z,52.72
2017-03-13T00:52:13.639Z,53.12
2017-03-13T00:53:27.587Z,53.09
2017-03-13T00:54:41.879Z,53.19
2017-03-13T00:55:55.857Z,52.91
2017-03-13T00:57:10.229Z,53
2017-03-13T00:58:24.611Z,53.47
2017-03-13T00:59:39.189Z,53.66
2017-03-13T01:00:52.815Z,53.57
2017-03-13T01:02:06.830Z,53.57
2017-03-13T01:03:20.752Z,53.57
2017-03-13T01:04:35.262Z,53.57
2017-03-13T01:05:48.888Z,53.47
2017-03-13T01:07:03.340Z,54.05
2017-03-13T01:08:16.985Z,54.05
2017-03-13T01:09:30.525Z,54.24
2017-03-13T01:10:44.290Z,53.95
2017-03-13T01:11:57.901Z,53.95
2017-03-13T01:13:11.506Z,54.61
2017-03-13T01:14:24.993Z,54.43
2017-03-13T01:15:39.420Z,54.52
2017-03-13T01:16:53.154Z,54.61
2017-03-13T01:18:07.102Z,54.52
2017-03-13T01:19:20.989Z,54.71
2017-03-13T01:20:34.531Z,54.43
2017-03-13T01:21:48.168Z,54.33
2017-03-13T01:23:01.726Z,54.33
2017-03-13T01:24:15.332Z,54.61
2017-03-13T01:25:28.806Z,54.52
2017-03-13T01:26:42.273Z,54.43
2017-03-13T01:27:55.753Z,54.52
2017-03-13T01:29:09.241Z,54.8
2017-03-13T01:30:23.204Z,54.24
2017-03-13T01:31:36.681Z,54.43
2017-03-13T01:32:50.266Z,54.43
2017-03-13T01:34:03.804Z,54.43
2017-03-13T01:35:18.148Z,54.9
2017-03-13T01:36:34.188Z,54.43
2017-03-13T01:37:48.128Z,54.61
2017-03-13T01:39:01.636Z,54.99
2017-03-13T01:40:15.519Z,54.43
2017-03-13T01:41:29.051Z,54.8
2017-03-13T01:42:42.534Z,55.09
2017-03-13T01:43:56.064Z,55.54
2017-03-13T01:45:09.582Z,55.44
2017-03-13T01:46:23.262Z,55.16
2017-03-13T01:47:37.275Z,55.44
2017-03-13T01:48:50.818Z,55.44
2017-03-13T01:50:05.094Z,55.35
2017-03-13T01:51:18.553Z,55.54
2017-03-13T01:52:32.041Z,55.82
2017-03-13T01:53:45.626Z,55.73
2017-03-13T01:54:59.148Z,55.63
2017-03-13T01:56:12.845Z,55.63
2017-03-13T01:57:26.342Z,55.73
2017-03-13T01:58:39.872Z,55.73
2017-03-13T01:59:54.067Z,55.73
2017-03-13T02:01:07.964Z,55.82
2017-03-13T02:02:21.920Z,55.91
2017-03-13T02:03:35.434Z,55.82
2017-03-13T02:04:49.004Z,55.82
2017-03-13T02:06:02.471Z,55.91
2017-03-13T02:07:15.939Z,55.82
2017-03-13T02:08:29.404Z,56.1
2017-03-13T02:09:43.102Z,56.2
2017-03-13T02:10:56.551Z,55.63
2017-03-13T02:12:10.010Z,55.91
2017-03-13T02:13:23.454Z,55.63
2017-03-13T02:14:36.916Z,56.49
2017-03-13T02:15:50.588Z,56.29
2017-03-13T02:17:04.058Z,56.39
2017-03-13T02:18:17.909Z,56.2
2017-03-13T02:19:31.827Z,56.49
2017-03-13T02:20:45.812Z,56.29
2017-03-13T02:21:59.285Z,56.29
2017-03-13T02:23:12.764Z,56.29
2017-03-13T02:24:27.122Z,56.2
2017-03-13T02:25:41.656Z,56.1
2017-03-13T02:26:55.106Z,56.1
2017-03-13T02:28:09.008Z,56.39
2017-03-13T02:29:23.020Z,56.39
2017-03-13T02:30:36.479Z,56.68
2017-03-13T02:31:50.408Z,56.49
2017-03-13T02:33:03.915Z,56.58
2017-03-13T02:34:30.117Z,56.39
2017-03-13T02:35:43.695Z,56.01
2017-03-13T02:36:57.200Z,56.49
2017-03-13T02:38:10.699Z,56.77
2017-03-13T02:39:24.144Z,56.96
2017-03-13T02:40:37.607Z,56.49
2017-03-13T02:41:51.576Z,56.58
2017-03-13T02:43:04.995Z,56.77
2017-03-13T02:44:18.905Z,56.87
2017-03-13T02:45:32.328Z,56.87
2017-03-13T02:46:45.853Z,56.87
2017-03-13T02:47:59.691Z,56.77
2017-03-13T02:49:13.128Z,56.68
2017-03-13T02:50:26.964Z,56.68
2017-03-13T02:51:40.476Z,56.96
2017-03-13T02:52:56.116Z,57.06
2017-03-13T02:54:09.635Z,56.96
2017-03-13T02:55:23.064Z,57.53
2017-03-13T02:56:36.605Z,57.43
2017-03-13T02:57:50.556Z,57.15
2017-03-13T02:59:04.022Z,57.06
2017-03-13T03:00:17.462Z,57.24
2017-03-13T03:01:31.044Z,57.24
2017-03-13T03:02:44.973Z,57.06
2017-03-13T03:03:58.447Z,57.34
2017-03-13T03:05:12.307Z,57.15
2017-03-13T03:06:26.196Z,57.06
2017-03-13T03:07:39.773Z,57.53
2017-03-13T03:08:53.301Z,57.24
2017-03-13T03:10:07.143Z,57.34
2017-03-13T03:11:20.647Z,57.53
2017-03-13T03:12:34.076Z,57.5
2017-03-13T03:13:49.044Z,57.53
2017-03-13T03:15:03.000Z,57.53
2017-03-13T03:16:18.090Z,57.81
2017-03-13T03:17:33.712Z,58
2017-03-13T03:18:49.619Z,58.1
2017-03-13T03:20:04.864Z,58
2017-03-13T03:21:20.473Z,57.98
2017-03-13T03:22:37.020Z,57.88
2017-03-13T03:23:52.556Z,58.54
2017-03-13T03:25:06.543Z,57.98
2017-03-13T03:26:20.059Z,58.45
2017-03-13T03:27:33.984Z,58.26
2017-03-13T03:28:47.925Z,58.07
2017-03-13T03:30:01.340Z,58.17
2017-03-13T03:31:14.773Z,58.54
2017-03-13T03:32:28.293Z,58.54
2017-03-13T03:33:41.850Z,58.83
2017-03-13T03:34:55.338Z,59.11
2017-03-13T03:36:08.750Z,59.4
2017-03-13T03:37:22.228Z,59.49
2017-03-13T03:38:36.076Z,59.68
2017-03-13T03:39:49.631Z,59.49
2017-03-13T03:41:03.094Z,59.49
2017-03-13T03:42:16.921Z,59.59
2017-03-13T03:43:30.332Z,59.78
2017-03-13T03:44:44.428Z,60.25
2017-03-13T03:45:59.134Z,60.25
2017-03-13T03:47:13.045Z,60.16
2017-03-13T03:48:27.328Z,60.25
2017-03-13T03:49:55.733Z,60.25
2017-03-13T03:51:09.201Z,60.53
2017-03-13T03:52:22.626Z,60.63
2017-03-13T03:53:36.080Z,60.63
2017-03-13T03:54:49.541Z,60.63
2017-03-13T03:56:03.171Z,61.01
2017-03-13T03:57:17.559Z,61.01
2017-03-13T03:58:31.008Z,61.2
2017-03-13T03:59:44.474Z,61.3
2017-03-13T04:00:58.477Z,61.3
2017-03-13T04:02:11.926Z,61.17
2017-03-13T04:03:25.447Z,61.08
2017-03-13T04:04:39.295Z,61.3
2017-03-13T04:05:52.864Z,61.36
2017-03-13T04:07:07.611Z,61.55
2017-03-13T04:08:21.023Z,61.36
2017-03-13T04:09:37.170Z,61.58
2017-03-13T04:10:50.675Z,61.83
2017-03-13T04:12:04.251Z,61.74
2017-03-13T04:13:17.693Z,62.12
2017-03-13T04:14:31.133Z,62.12
2017-03-13T04:15:46.143Z,62.12
2017-03-13T04:16:59.750Z,62.4
2017-03-13T04:18:13.177Z,62.31
2017-03-13T04:19:26.623Z,62.31
2017-03-13T04:20:40.060Z,62.4
2017-03-13T04:21:53.813Z,62.21
2017-03-13T04:23:07.639Z,62.21
2017-03-13T04:24:21.076Z,62.31
2017-03-13T04:25:34.918Z,62.31
2017-03-13T04:26:48.498Z,62.59
2017-03-13T04:28:02.367Z,62.21
2017-03-13T04:29:15.851Z,62.4
2017-03-13T04:30:29.781Z,62.31
2017-03-13T04:31:43.289Z,62.4
2017-03-13T04:32:56.789Z,62.12
2017-03-13T04:34:10.275Z,62.12
2017-03-13T04:35:24.178Z,62.31
2017-03-13T04:36:37.716Z,62.21
2017-03-13T04:37:51.283Z,62.31
2017-03-13T04:39:08.180Z,62.4
2017-03-13T04:40:21.635Z,62.21
2017-03-13T04:41:35.568Z,62.21
2017-03-13T04:42:49.121Z,62.4
2017-03-13T04:44:02.582Z,61.74
2017-03-13T04:45:16.518Z,61.93
2017-03-13T04:46:29.932Z,61.74
2017-03-13T04:47:43.486Z,61.74
2017-03-13T04:48:57.412Z,61.83
2017-03-13T04:50:10.840Z,61.27
2017-03-13T04:51:24.757Z,62.02
2017-03-13T04:52:38.786Z,61.65
2017-03-13T04:53:52.891Z,61.93
2017-03-13T04:55:06.775Z,61.65
2017-03-13T04:56:20.728Z,61.65
2017-03-13T04:57:34.594Z,61.55
2017-03-13T04:58:48.994Z,61.65
2017-03-13T05:00:03.103Z,61.74
2017-03-13T05:01:17.404Z,61.65
2017-03-13T05:02:30.824Z,61.36
2017-03-13T05:03:44.348Z,61.27
2017-03-13T05:04:58.106Z,61.36
2017-03-13T05:06:11.599Z,61.93
2017-03-13T05:07:25.278Z,62.02
2017-03-13T05:08:39.289Z,61.74
2017-03-13T05:09:53.250Z,62.02
2017-03-13T05:11:07.063Z,62.02
2017-03-13T05:12:20.591Z,61.83
2017-03-13T05:13:34.335Z,61.93
2017-03-13T05:14:48.252Z,61.93
2017-03-13T05:16:02.160Z,62.02
2017-03-13T05:17:16.340Z,61.93
2017-03-13T05:18:29.846Z,61.83
2017-03-13T05:19:43.471Z,62.02
2017-03-13T05:25:20.231Z,61.74
2017-03-13T05:26:33.693Z,61.74
2017-03-13T05:27:47.998Z,62.12
2017-03-13T05:29:03.837Z,62.59
2017-03-13T05:30:18.309Z,62.21
2017-03-13T05:31:31.793Z,62.5
2017-03-13T05:32:45.281Z,62.5
2017-03-13T05:33:58.702Z,62.31
2017-03-13T05:35:12.916Z,62.21
2017-03-13T05:36:27.004Z,62.5
2017-03-13T05:37:40.437Z,62.31
2017-03-13T05:38:54.218Z,62.31
2017-03-13T05:40:07.706Z,62.4
2017-03-13T05:41:21.671Z,62.21
2017-03-13T05:42:35.193Z,62.21
2017-03-13T05:43:48.809Z,62.59
2017-03-13T05:45:03.072Z,62.69
2017-03-13T05:46:17.480Z,62.12
2017-03-13T05:47:30.952Z,62.12
2017-03-13T05:48:44.435Z,62.21
2017-03-13T05:49:57.922Z,62.12
2017-03-13T05:51:12.486Z,62.21
2017-03-13T05:52:26.005Z,62.59
2017-03-13T05:53:39.504Z,62.69
2017-03-13T05:54:53.478Z,62.31
2017-03-13T05:56:13.374Z,62.21
2017-03-13T05:57:27.213Z,62.4
2017-03-13T05:58:41.141Z,62.21
2017-03-13T05:59:55.021Z,62.31
2017-03-13T06:01:09.035Z,62.78
2017-03-13T06:02:22.795Z,63.92
2017-03-13T06:03:36.533Z,63.64
2017-03-13T06:04:49.959Z,63.45
2017-03-13T06:06:03.470Z,63.54
2017-03-13T06:07:17.146Z,62.78
2017-03-13T06:08:30.733Z,62.78
2017-03-13T06:09:44.449Z,62.97
2017-03-13T06:10:57.929Z,62.97
2017-03-13T06:12:11.951Z,62.21
2017-03-13T06:13:25.546Z,62.21
2017-03-13T06:14:39.014Z,63.54
2017-03-13T06:15:52.843Z,62.97
2017-03-13T06:17:06.897Z,62.72
2017-03-13T06:18:20.451Z,62.59
2017-03-13T06:19:34.315Z,62.4
2017-03-13T06:20:48.195Z,61.93
2017-03-13T06:22:01.965Z,61.83
2017-03-13T06:23:15.515Z,62.02
2017-03-13T06:24:28.960Z,64.11
2017-03-13T06:25:42.420Z,67.65
2017-03-13T06:26:55.872Z,62.34
2017-03-13T06:28:09.792Z,61.77
2017-03-13T06:29:23.485Z,61.39
2017-03-13T06:30:36.963Z,61.39
2017-03-13T06:31:50.852Z,61.11
2017-03-13T06:33:04.583Z,61.46
2017-03-13T06:34:18.875Z,61.55
2017-03-13T06:35:32.423Z,61.27
2017-03-13T06:36:45.846Z,61.17
2017-03-13T06:37:59.328Z,61.65
2017-03-13T06:39:12.773Z,61.39
2017-03-13T06:40:26.567Z,61.36
2017-03-13T06:41:40.127Z,61.2
2017-03-13T06:42:53.560Z,61.11
2017-03-13T06:44:07.035Z,60.82
2017-03-13T06:45:22.724Z,61.01
2017-03-13T06:46:36.653Z,60.63
2017-03-13T06:47:50.132Z,60.63
2017-03-13T06:49:03.605Z,60.53
2017-03-13T06:50:17.138Z,60.25
2017-03-13T06:51:31.095Z,60.35
2017-03-13T06:52:44.988Z,59.97
2017-03-13T06:53:58.563Z,60.25
2017-03-13T06:55:12.415Z,60.16
2017-03-13T06:56:26.360Z,60.06
2017-03-13T06:57:40.240Z,60.16
2017-03-13T06:58:54.082Z,60.06
2017-03-13T07:00:07.721Z,60.35
2017-03-13T07:01:21.257Z,60.16
2017-03-13T07:02:34.738Z,60.44
2017-03-13T07:03:48.200Z,59.97
2017-03-13T07:05:02.339Z,60.06
2017-03-13T07:06:15.897Z,60.16
2017-03-13T07:07:29.456Z,60.16
2017-03-13T07:08:42.939Z,59.49
2017-03-13T07:09:56.411Z,59.59
2017-03-13T07:11:10.165Z,59.49
2017-03-13T07:12:24.260Z,59.49
2017-03-13T07:13:38.204Z,59.4
2017-03-13T07:14:52.530Z,59.49
2017-03-13T07:16:06.006Z,60.06
2017-03-13T07:17:19.756Z,59.78
2017-03-13T07:18:33.272Z,59.88
2017-03-13T07:19:47.232Z,59.68
2017-03-13T07:21:02.003Z,59.78
2017-03-13T07:22:15.482Z,59.49
2017-03-13T07:23:29.322Z,58.92
2017-03-13T07:24:42.748Z,58.83
2017-03-13T07:25:56.278Z,59.02
2017-03-13T07:27:10.179Z,59.21
2017-03-13T07:28:23.715Z,58.36
2017-03-13T07:29:37.523Z,58.76
2017-03-13T07:30:51.011Z,58.29
2017-03-13T07:32:05.012Z,58.39
2017-03-13T07:33:18.893Z,58.39
2017-03-13T07:34:32.473Z,58
2017-03-13T07:35:46.232Z,58.29
2017-03-13T07:36:59.722Z,58.2
2017-03-13T07:38:13.250Z,58
2017-03-13T07:39:26.829Z,58
2017-03-13T07:40:40.311Z,58.1
2017-03-13T07:41:54.985Z,57.24
2017-03-13T07:43:08.527Z,57.53
2017-03-13T07:44:22.082Z,56.96
2017-03-13T07:45:35.995Z,57.06
2017-03-13T07:46:49.470Z,56.89
2017-03-13T07:48:03.222Z,56.7
2017-03-13T07:49:16.714Z,56.58
2017-03-13T07:50:30.325Z,56.96
2017-03-13T07:51:43.924Z,57.15
2017-03-13T07:52:57.598Z,57.34
2017-03-13T07:54:11.317Z,57.62
2017-03-13T07:55:25.307Z,56.96
2017-03-13T07:56:39.263Z,57.15
2017-03-13T07:57:52.727Z,57.06
2017-03-13T07:59:06.218Z,57.06
2017-03-13T08:00:20.020Z,56.77
2017-03-13T08:01:35.738Z,56.87
2017-03-13T08:02:49.421Z,56.99
2017-03-13T08:04:02.996Z,56.96
2017-03-13T08:05:16.599Z,56.96
2017-03-13T08:06:30.445Z,56.61
2017-03-13T08:07:44.361Z,57.18
2017-03-13T08:08:57.838Z,56.61
2017-03-13T08:10:11.368Z,56.61
2017-03-13T08:11:25.661Z,56.23
2017-03-13T08:12:39.850Z,56.23
2017-03-13T08:13:53.739Z,55.94
2017-03-13T08:15:08.286Z,55.37
2017-03-13T08:16:22.554Z,55.47
2017-03-13T08:17:36.158Z,55.37
2017-03-13T08:18:50.358Z,54.99
2017-03-13T08:20:03.832Z,55.28
2017-03-13T08:21:17.288Z,56.51
2017-03-13T08:22:30.886Z,55.37
2017-03-13T08:23:44.338Z,55.09
2017-03-13T08:24:58.102Z,54.9
2017-03-13T08:26:11.582Z,54.55
2017-03-13T08:27:25.130Z,54.74
2017-03-13T08:29:23.839Z,54.45
2017-03-13T08:30:37.577Z,54.8
2017-03-13T08:31:51.063Z,54.74
2017-03-13T08:33:05.725Z,54.45
2017-03-13T08:34:19.638Z,53.88
2017-03-13T08:35:33.071Z,54.07
2017-03-13T08:36:47.340Z,52.93
2017-03-13T08:38:01.923Z,52.74
2017-03-13T08:39:15.391Z,52.36
2017-03-13T08:40:29.020Z,52.26
2017-03-13T08:41:42.524Z,51.89
2017-03-13T08:42:56.546Z,52.2
2017-03-13T08:44:10.736Z,52.08
2017-03-13T08:45:24.833Z,51.43
2017-03-13T08:46:38.372Z,51.91
2017-03-13T08:47:51.929Z,52.1
2017-03-13T08:49:06.215Z,52.01
2017-03-13T08:50:19.737Z,51.91
2017-03-13T08:51:33.231Z,52.1
2017-03-13T08:52:47.010Z,51.72
2017-03-13T08:54:01.008Z,51.91
2017-03-13T08:55:15.026Z,52.01
2017-03-13T08:56:29.044Z,51.15
2017-03-13T08:57:42.750Z,50.13
2017-03-13T08:58:56.233Z,50.1
2017-03-13T09:00:09.741Z,50.29
2017-03-13T09:01:23.889Z,50.58
2017-03-13T09:02:50.109Z,50.68
2017-03-13T09:04:03.720Z,50.7
2017-03-13T09:05:17.337Z,49.46
2017-03-13T09:06:31.221Z,49.56
2017-03-13T09:07:44.962Z,50.13
2017-03-13T09:08:58.815Z,49.18
2017-03-13T09:10:12.457Z,48.63
2017-03-13T09:11:26.290Z,48.63
2017-03-13T09:12:39.759Z,47.97
2017-03-13T09:13:53.966Z,47.78
2017-03-13T09:15:07.545Z,47.23
2017-03-13T09:16:21.107Z,47.2
2017-03-13T09:17:34.599Z,47.23
2017-03-13T09:18:50.319Z,46.09
2017-03-13T09:20:04.278Z,45.99
2017-03-13T09:21:17.739Z,45.8
2017-03-13T09:22:31.605Z,45.51
2017-03-13T09:23:45.569Z,45.51
2017-03-13T09:24:59.082Z,45.51
2017-03-13T09:26:12.954Z,45.42
2017-03-13T09:27:26.913Z,45.97
2017-03-13T09:28:40.397Z,45.87
2017-03-13T09:29:54.024Z,46.06
2017-03-13T09:31:07.591Z,46.09
2017-03-13T09:32:21.344Z,45.89
2017-03-13T09:33:34.994Z,45.51
2017-03-13T09:34:48.622Z,45.61
2017-03-13T09:36:02.388Z,44.75
2017-03-13T09:37:16.058Z,44.37
2017-03-13T09:38:29.814Z,44.27
2017-03-13T09:39:43.306Z,44.27
2017-03-13T09:40:56.806Z,44.27
2017-03-13T09:42:10.783Z,43.71
2017-03-13T09:43:24.285Z,44.18
2017-03-13T09:44:38.024Z,44.37
2017-03-13T09:45:51.533Z,44.46
2017-03-13T09:47:05.849Z,44.56
2017-03-13T09:48:20.375Z,44.46
2017-03-13T09:49:34.218Z,43.8
2017-03-13T09:50:48.453Z,43.32
2017-03-13T09:52:01.993Z,43.23
2017-03-13T09:53:15.805Z,42.85
2017-03-13T09:54:29.291Z,43.13
2017-03-13T09:55:42.739Z,43.42
2017-03-13T09:56:56.898Z,43.35
2017-03-13T09:58:10.451Z,43.63
2017-03-13T09:59:23.904Z,43.63
2017-03-13T10:00:37.397Z,43.51
2017-03-13T10:01:50.869Z,43.32
2017-03-13T10:03:04.907Z,43.63
2017-03-13T10:04:31.161Z,43.73
2017-03-13T10:05:44.653Z,43.35
2017-03-13T10:06:58.561Z,42.87
2017-03-13T10:08:13.454Z,42.68
2017-03-13T10:09:26.885Z,42.77
2017-03-13T10:10:40.360Z,43.06
2017-03-13T10:11:53.839Z,42.58
2017-03-13T10:13:07.379Z,42.87
2017-03-13T10:14:21.728Z,42.96
2017-03-13T10:15:35.212Z,43.35
2017-03-13T10:16:48.659Z,42.96
2017-03-13T10:18:02.134Z,42.58
2017-03-13T10:19:15.695Z,42.4
2017-03-13T10:20:29.453Z,42.01
2017-03-13T10:21:43.027Z,41.84
2017-03-13T10:22:56.556Z,42.13
2017-03-13T10:24:10.497Z,42.7
2017-03-13T10:25:24.005Z,42.22
2017-03-13T10:26:38.187Z,42.32
2017-03-13T10:27:51.787Z,42.41
2017-03-13T10:29:05.398Z,42.7
2017-03-13T10:30:18.869Z,42.03
2017-03-13T10:31:32.356Z,41.75
2017-03-13T10:32:46.082Z,41.65
2017-03-13T10:33:59.736Z,41.65
2017-03-13T10:35:15.753Z,42.03
2017-03-13T10:36:29.250Z,41.94
2017-03-13T10:37:43.151Z,41.56
2017-03-13T10:38:57.357Z,41.75
2017-03-13T10:40:10.935Z,41.46
2017-03-13T10:41:24.820Z,41.75
2017-03-13T10:42:38.314Z,41.08
2017-03-13T10:43:51.814Z,41.27
2017-03-13T10:45:05.804Z,40.99
2017-03-13T10:46:19.282Z,41.46
2017-03-13T10:47:32.761Z,41.17
2017-03-13T10:48:46.629Z,41.56
2017-03-13T10:52:15.616Z,41.36
2017-03-13T10:53:29.964Z,41.56
2017-03-13T10:54:43.613Z,41.46
2017-03-13T10:55:57.132Z,41.46
2017-03-13T10:57:11.468Z,41.17
2017-03-13T10:58:25.445Z,40.7
2017-03-13T10:59:38.958Z,40.89
2017-03-13T11:00:52.943Z,41
2017-03-13T11:02:06.541Z,41.2
2017-03-13T11:03:20.454Z,41
2017-03-13T11:04:34.203Z,40.53
2017-03-13T11:05:48.088Z,40.05
2017-03-13T11:07:01.545Z,40.53
2017-03-13T11:08:15.100Z,41.1
2017-03-13T11:09:29.389Z,40.72
2017-03-13T11:10:43.855Z,39.02
2017-03-13T11:11:57.327Z,38.93
2017-03-13T11:13:11.315Z,39.31
2017-03-13T11:14:24.747Z,37.88
2017-03-13T11:15:38.661Z,37.78
2017-03-13T11:16:52.408Z,37.88
2017-03-13T11:18:06.767Z,37.78
2017-03-13T11:19:20.288Z,37.68
2017-03-13T11:20:34.196Z,37.59
2017-03-13T11:21:48.566Z,37.02
2017-03-13T11:23:02.846Z,37.04
2017-03-13T11:24:16.292Z,36.94
2017-03-13T11:25:29.773Z,37.32
2017-03-13T11:26:43.665Z,37.13
2017-03-13T11:27:57.585Z,36.75
2017-03-13T11:29:11.878Z,36.94
2017-03-13T11:30:25.337Z,36.83
2017-03-13T11:31:38.821Z,36.73
2017-03-13T11:32:52.293Z,36.64
2017-03-13T11:34:05.934Z,36.18
2017-03-13T11:35:19.704Z,35.51
2017-03-13T11:36:33.146Z,35.22
2017-03-13T11:37:46.703Z,35.32
2017-03-13T11:39:00.312Z,34.67
2017-03-13T11:40:14.291Z,34.77
2017-03-13T11:41:28.027Z,34.57
2017-03-13T11:42:41.480Z,33.64
2017-03-13T11:43:55.346Z,33.35
2017-03-13T11:45:09.464Z,33.83
2017-03-13T11:46:23.006Z,33.92
2017-03-13T11:47:36.792Z,33.44
2017-03-13T11:48:50.685Z,33.25
2017-03-13T11:50:04.267Z,33.73
2017-03-13T11:51:17.841Z,33.81
2017-03-13T11:52:34.211Z,33.25
2017-03-13T11:53:48.371Z,33.81
2017-03-13T11:55:02.410Z,34.09
2017-03-13T11:56:15.873Z,34.38
2017-03-13T11:57:29.350Z,34.57
2017-03-13T11:58:42.979Z,34.67
2017-03-13T11:59:56.762Z,34.09
2017-03-13T12:01:11.166Z,33.71
2017-03-13T12:03:09.439Z,33.42
2017-03-13T12:04:23.352Z,33.54
2017-03-13T12:05:37.226Z,33.15
2017-03-13T12:06:51.519Z,32.5
2017-03-13T12:08:05.101Z,32.6
2017-03-13T12:09:18.613Z,33.15
2017-03-13T12:10:32.600Z,33.44
2017-03-13T12:11:46.350Z,33.35
2017-03-13T12:12:59.856Z,33.25
2017-03-13T12:14:13.470Z,33.44
2017-03-13T12:15:27.370Z,32.1
2017-03-13T12:16:41.064Z,32.49
2017-03-13T12:17:54.567Z,32.29
2017-03-13T12:19:08.072Z,32.39
2017-03-13T12:20:21.682Z,32.49
2017-03-13T12:21:36.793Z,32.58
2017-03-13T12:22:50.299Z,33.35
2017-03-13T12:24:04.086Z,32.97
2017-03-13T12:25:17.555Z,32.1
2017-03-13T12:26:31.046Z,32.49
2017-03-13T12:27:44.708Z,32.49
2017-03-13T12:28:58.547Z,33.25
2017-03-13T12:30:11.990Z,33.35
2017-03-13T12:31:25.880Z,32.49
2017-03-13T12:32:39.475Z,32.49
2017-03-13T12:33:54.385Z,32.58
2017-03-13T12:35:07.868Z,32.29
2017-03-13T12:36:22.201Z,33.25
2017-03-13T12:37:35.757Z,33.35
2017-03-13T12:38:49.691Z,33.25
2017-03-13T12:40:03.694Z,33.44
2017-03-13T12:41:17.169Z,33.92
2017-03-13T12:42:31.085Z,34.4
2017-03-13T12:43:45.009Z,33.73
2017-03-13T12:44:58.495Z,34.4
2017-03-13T12:46:11.986Z,34.59
2017-03-13T12:47:27.052Z,34.2
2017-03-13T12:48:41.372Z,34.4
2017-03-13T12:49:55.308Z,33.64
2017-03-13T12:51:08.962Z,33.54
2017-03-13T12:54:12.476Z,34.4
2017-03-13T12:55:26.690Z,34.4
2017-03-13T12:56:40.208Z,34.3
2017-03-13T12:57:53.721Z,34.4
2017-03-13T12:59:07.204Z,34.09
2017-03-13T13:00:21.587Z,34.38
2017-03-13T13:01:35.030Z,34.19
2017-03-13T13:02:48.912Z,34.57
2017-03-13T13:04:02.533Z,34.38
2017-03-13T13:05:16.051Z,34.28
2017-03-13T13:06:30.305Z,33.42
2017-03-13T13:07:44.007Z,33.42
2017-03-13T13:08:57.667Z,33.42
2017-03-13T13:10:11.295Z,33.42
2017-03-13T13:11:27.616Z,33.42
2017-03-13T13:14:10.784Z,33.81
2017-03-13T13:20:54.309Z,33.14
2017-03-13T13:22:07.739Z,33.23
2017-03-13T13:23:21.294Z,33.04
2017-03-13T13:24:35.162Z,33.42
2017-03-13T13:25:49.092Z,32.57
2017-03-13T13:27:03.054Z,32.09
2017-03-13T13:28:17.077Z,32.49
2017-03-13T13:29:31.136Z,32.47
2017-03-13T13:30:45.601Z,32.47
2017-03-13T13:31:59.701Z,33.25
2017-03-13T13:40:34.038Z,33.92
2017-03-13T13:41:47.486Z,33.64
2017-03-13T13:43:02.281Z,33.73
2017-03-13T13:44:17.568Z,33.54
2017-03-13T13:45:33.963Z,33.42
2017-03-13T13:46:50.070Z,33.33
2017-03-13T13:49:20.904Z,33.81
2017-03-13T13:50:50.579Z,33.71
2017-03-13T13:52:05.015Z,34.19
2017-03-13T13:53:18.781Z,33.62
2017-03-13T13:54:32.474Z,33.62
2017-03-13T13:55:47.009Z,34.19
2017-03-13T13:57:00.539Z,34
2017-03-13T13:58:14.994Z,34.67
2017-03-13T13:59:30.338Z,34.48
2017-03-13T14:00:43.961Z,35.16
2017-03-13T14:01:59.134Z,34.49
2017-03-13T14:03:12.706Z,34.69
2017-03-13T14:04:26.118Z,34.01
2017-03-13T14:05:40.234Z,34.2
2017-03-13T14:06:54.357Z,34.19
2017-03-13T14:08:08.319Z,33.83
2017-03-13T14:09:22.773Z,34.01
2017-03-13T14:10:37.639Z,34.2
2017-03-13T14:11:51.437Z,34.11
2017-03-13T14:13:05.272Z,33.54
2017-03-13T14:14:18.695Z,33.44
2017-03-13T14:15:32.997Z,33.73
2017-03-13T14:16:47.038Z,33.35
2017-03-13T14:18:01.510Z,33.23
2017-03-13T14:19:15.303Z,34.3
2017-03-13T14:20:29.317Z,34.38
2017-03-13T14:21:43.739Z,34.2
2017-03-13T14:22:57.160Z,34.49
2017-03-13T14:24:11.666Z,33.83
2017-03-13T14:25:26.086Z,33.25
2017-03-13T14:26:41.168Z,33.25
2017-03-13T14:27:56.288Z,33.64
2017-03-13T14:29:09.705Z,33.64
2017-03-13T14:30:23.799Z,33.44
2017-03-13T14:31:37.401Z,33.25
2017-03-13T14:32:50.864Z,33.35
2017-03-13T14:34:04.680Z,33.35
2017-03-13T14:35:18.553Z,33.06
2017-03-13T14:36:31.970Z,33.36
2017-03-13T14:37:45.602Z,33.17
2017-03-13T14:38:59.027Z,33.17
2017-03-13T14:40:14.656Z,33.46
2017-03-13T14:41:28.110Z,33.27
2017-03-13T14:42:41.937Z,32.5
2017-03-13T14:43:55.427Z,32.5
2017-03-13T14:45:09.178Z,32.5
2017-03-13T14:46:23.088Z,32.41
2017-03-13T14:47:36.973Z,32.6
2017-03-13T14:48:50.986Z,33.27
2017-03-13T14:50:04.873Z,33.36
2017-03-13T14:51:18.751Z,33.36
2017-03-13T14:52:33.085Z,35.08
2017-03-13T14:53:47.052Z,34.99
2017-03-13T14:55:01.540Z,35.75
2017-03-13T14:56:15.006Z,34.61
2017-03-13T14:57:28.514Z,34.61
2017-03-13T14:58:42.453Z,33.19
2017-03-13T15:00:03.260Z,32.23
2017-03-13T15:01:22.471Z,31.95
2017-03-13T15:02:36.354Z,32.12
2017-03-13T15:03:49.884Z,31.85
2017-03-13T15:05:03.290Z,32.03
2017-03-13T15:06:16.714Z,32.21
2017-03-13T15:07:30.130Z,32.12
2017-03-13T15:08:44.437Z,32.21
2017-03-13T15:09:57.998Z,31.45
2017-03-13T15:11:12.274Z,31.45
2017-03-13T15:12:26.211Z,31.93
2017-03-13T15:13:40.188Z,32.21
2017-03-13T15:14:53.827Z,32.31
2017-03-13T15:16:08.097Z,32.41
2017-03-13T15:17:21.949Z,32.31
2017-03-13T15:18:36.211Z,32.5
2017-03-13T15:19:51.478Z,32.41
2017-03-13T15:21:04.941Z,31.95
2017-03-13T15:22:24.649Z,32.04
2017-03-13T15:23:38.751Z,32.03
2017-03-13T15:25:05.481Z,32.21
2017-03-13T15:26:19.238Z,32.23
2017-03-13T15:27:33.565Z,32.21
2017-03-13T15:28:47.064Z,32.31
2017-03-13T15:30:01.460Z,32.41
2017-03-13T15:31:15.427Z,32.6
2017-03-13T15:32:29.258Z,32.41
2017-03-13T15:33:43.220Z,32.21
2017-03-13T15:34:57.245Z,32.42
2017-03-13T15:36:11.598Z,32.52
2017-03-13T15:37:25.179Z,32.14
2017-03-13T15:38:38.908Z,32.33
2017-03-13T15:39:53.113Z,32.04
2017-03-13T15:41:06.960Z,31.37
2017-03-13T15:42:20.354Z,31.66
2017-03-13T15:43:33.848Z,31.56
2017-03-13T15:44:47.594Z,31.66
2017-03-13T15:46:02.100Z,31.47
2017-03-13T15:47:15.533Z,31.27
2017-03-13T15:48:29.428Z,31.76
2017-03-13T15:49:42.862Z,31.27
2017-03-13T15:50:56.669Z,31.27
2017-03-13T15:52:10.538Z,31.09
2017-03-13T15:53:24.382Z,30.99
2017-03-13T15:54:37.807Z,31.47
2017-03-13T15:55:51.337Z,31.66
2017-03-13T15:57:08.469Z,31.66
2017-03-13T15:58:22.294Z,31.76
2017-03-13T15:59:35.705Z,31.66
2017-03-13T16:00:49.265Z,32.04
2017-03-13T16:02:02.713Z,31.45
2017-03-13T16:03:16.463Z,31.37
2017-03-13T16:04:29.946Z,31.84
2017-03-13T16:05:43.423Z,31.76
2017-03-13T16:06:57.209Z,31.64
2017-03-13T16:08:10.758Z,31.45
2017-03-13T16:09:24.509Z,32.12
2017-03-13T16:10:38.431Z,32.12
2017-03-13T16:11:52.086Z,32.41
2017-03-13T16:13:05.548Z,32.6
2017-03-13T16:14:19.832Z,32.31
2017-03-13T16:15:34.596Z,32.23
2017-03-13T16:16:48.176Z,32.21
2017-03-13T16:18:02.071Z,32.04
2017-03-13T16:19:15.531Z,32.31
2017-03-13T16:20:28.988Z,32.21
2017-03-13T16:21:42.813Z,31.85